RJAZ(METAR)
01/23 22:00
RJAZ 231300Z 30027G43KT CAVOK 05/M09 Q1016 RMK A3000=
戻る
トップページへ戻る
IMOC Co,.Ltd.